RKPK

Gimhae

Airport
ICAO code
RKPK
Summary
ICAO Region
APAC
ICAO Territory
Location

Busan,

Coordinates
35° 10' 46" N , 128° 56' 17" E
KCC
Metar
RKPK 140400Z 19011KT 9999 FEW030 BKN200 30/16 Q1005

Description

International airport serving Busan, South Korea.

Climatology

Humid “subtropical” climate (Köppen climate classification Cfa) - characterized by hot, humid summers and cool winters. Significant amounts of precipitation occur in all seasons in most areas. Winter rainfall is associated with large storms.

Runways

Designator Length Width Surface Rops
18L/36R 2745 46 ASP Yes/Yes
18R/36L 3200 60 CON Yes/Yes

Airport map

Aerial View

SKYbrary Partners:

Safety knowledge contributed by: